createdAt,value
2022-10-01T00:05:26.394Z,9.75
2022-10-01T00:11:27.850Z,10.33
2022-10-01T00:17:29.475Z,9.90
2022-10-01T00:23:30.881Z,7.97
2022-10-01T00:29:32.333Z,7.60
2022-10-01T00:35:33.707Z,9.15
2022-10-01T00:41:35.487Z,8.90
2022-10-01T00:47:37.056Z,8.57
2022-10-01T00:53:38.696Z,7.53
2022-10-01T00:59:40.532Z,7.32
2022-10-01T01:05:41.924Z,7.50
2022-10-01T01:12:02.922Z,7.17
2022-10-01T01:18:09.222Z,10.85
2022-10-01T01:24:19.734Z,7.20
2022-10-01T01:30:21.182Z,7.30
2022-10-01T01:36:32.032Z,9.65
2022-10-01T01:42:37.080Z,7.97
2022-10-01T01:48:39.824Z,7.00
2022-10-01T01:54:45.085Z,6.93
2022-10-01T02:00:52.476Z,6.03
2022-10-01T02:07:06.126Z,9.13
2022-10-01T02:13:15.074Z,7.70
2022-10-01T02:19:35.586Z,8.10
2022-10-01T02:25:42.357Z,7.43
2022-10-01T02:31:45.014Z,8.45
2022-10-01T02:37:49.050Z,7.00
2022-10-01T02:43:57.697Z,7.20
2022-10-01T02:49:59.124Z,7.72
2022-10-01T02:56:01.872Z,7.73
2022-10-01T03:02:03.720Z,6.90
2022-10-01T03:08:05.169Z,6.65
2022-10-01T03:14:07.272Z,8.17
2022-10-01T03:20:09.760Z,7.75
2022-10-01T03:26:11.446Z,10.27
2022-10-01T03:32:13.376Z,9.82
2022-10-01T03:38:14.896Z,11.75
2022-10-01T03:44:16.329Z,8.00
2022-10-01T03:50:17.720Z,11.48
2022-10-01T03:56:19.140Z,10.23
2022-10-01T04:02:22.344Z,8.52
2022-10-01T04:08:24.501Z,8.80
2022-10-01T04:14:26.020Z,9.13
2022-10-01T04:20:27.430Z,8.82
2022-10-01T04:26:28.846Z,9.40
2022-10-01T04:32:30.285Z,9.65
2022-10-01T04:38:31.867Z,11.63
2022-10-01T04:44:33.339Z,9.70
2022-10-01T04:50:34.754Z,10.45
2022-10-01T04:56:36.126Z,12.07
2022-10-01T05:02:37.928Z,13.57
2022-10-01T05:08:39.350Z,10.60
2022-10-01T05:14:40.761Z,12.37
2022-10-01T05:20:42.198Z,9.63
2022-10-01T05:26:43.648Z,10.07
2022-10-01T05:32:53.109Z,10.55
2022-10-01T05:38:54.518Z,9.75
2022-10-01T05:44:56.007Z,10.80
2022-10-01T05:50:58.506Z,9.32
2022-10-01T05:56:59.914Z,9.53
2022-10-01T06:03:02.563Z,9.90
2022-10-01T06:09:04.091Z,10.75
2022-10-01T06:15:05.773Z,12.83
2022-10-01T06:21:07.363Z,11.40
2022-10-01T06:27:10.337Z,12.53
2022-10-01T06:33:13.006Z,10.70
2022-10-01T06:39:14.614Z,12.15
2022-10-01T06:45:17.831Z,10.10
2022-10-01T06:51:39.197Z,9.63
2022-10-01T06:57:40.848Z,11.07
2022-10-01T07:03:42.248Z,10.02
2022-10-01T07:09:44.375Z,9.65
2022-10-01T07:15:45.980Z,9.93
2022-10-01T07:21:50.385Z,9.27
2022-10-01T07:27:56.024Z,15.43
2022-10-01T07:34:00.424Z,11.43
2022-10-01T07:40:06.707Z,9.70
2022-10-01T07:46:09.306Z,9.00
2022-10-01T07:52:13.410Z,10.88
2022-10-01T07:58:15.519Z,12.77
2022-10-01T08:04:36.047Z,12.15
2022-10-01T08:10:38.499Z,10.98
2022-10-01T08:16:41.861Z,11.93
2022-10-01T08:22:43.390Z,11.18
2022-10-01T08:28:44.783Z,12.30
2022-10-01T08:34:46.619Z,12.93
2022-10-01T08:40:49.847Z,11.38
2022-10-01T08:46:51.988Z,11.00
2022-10-01T08:52:57.745Z,11.32
2022-10-01T08:59:02.350Z,9.43
2022-10-01T09:05:12.068Z,11.18
2022-10-01T09:11:29.384Z,8.57
2022-10-01T09:17:49.542Z,10.27
2022-10-01T09:24:17.128Z,9.77
2022-10-01T09:30:20.205Z,8.73
2022-10-01T09:36:39.684Z,9.35
2022-10-01T09:42:41.477Z,8.82
2022-10-01T09:49:05.007Z,10.43
2022-10-01T09:55:29.736Z,11.65
2022-10-01T10:01:43.725Z,9.27
2022-10-01T10:07:46.732Z,9.43
2022-10-01T10:14:04.463Z,8.88
2022-10-01T10:20:11.132Z,6.90
2022-10-01T10:26:17.989Z,7.82
2022-10-01T10:32:24.538Z,5.87
2022-10-01T10:38:29.240Z,6.63
2022-10-01T10:44:36.084Z,5.95
2022-10-01T10:50:39.335Z,5.93
2022-10-01T10:56:50.945Z,5.72
2022-10-01T11:02:52.309Z,5.17
2022-10-01T11:09:02.049Z,5.20
2022-10-01T11:15:14.176Z,4.55
2022-10-01T11:21:21.592Z,4.67
2022-10-01T11:27:27.640Z,6.70
2022-10-01T11:33:52.117Z,4.03
2022-10-01T11:39:55.466Z,4.47
2022-10-01T11:46:00.675Z,4.35
2022-10-01T11:52:07.394Z,3.43
2022-10-01T11:58:33.140Z,3.72
2022-10-01T12:04:58.077Z,3.47
2022-10-01T12:11:01.083Z,3.95
2022-10-01T12:17:25.845Z,4.18
2022-10-01T12:23:30.134Z,3.10
2022-10-01T12:29:37.260Z,4.97
2022-10-01T12:35:38.663Z,3.20
2022-10-01T12:41:53.058Z,3.95
2022-10-01T12:48:10.699Z,3.13
2022-10-01T12:54:14.920Z,4.17
2022-10-01T13:00:20.691Z,4.03
2022-10-01T13:06:35.764Z,2.40
2022-10-01T13:12:56.476Z,2.35
2022-10-01T13:19:03.270Z,2.85
2022-10-01T13:25:10.614Z,2.83
2022-10-01T13:31:14.777Z,2.70
2022-10-01T13:37:18.070Z,2.13
2022-10-01T13:43:23.275Z,2.67
2022-10-01T13:49:29.976Z,2.60
2022-10-01T13:55:31.634Z,3.03
2022-10-01T14:01:42.539Z,2.53
2022-10-01T14:07:46.085Z,2.80
2022-10-01T14:14:06.778Z,3.45
2022-10-01T14:20:08.943Z,2.28
2022-10-01T14:26:32.579Z,2.70
2022-10-01T14:32:34.221Z,2.75
2022-10-01T14:38:35.769Z,2.03
2022-10-01T14:44:38.952Z,2.88
2022-10-01T14:50:40.646Z,2.65
2022-10-01T14:56:42.305Z,2.20
2022-10-01T15:02:45.325Z,2.25
2022-10-01T15:08:48.167Z,2.30
2022-10-01T15:14:53.256Z,2.45
2022-10-01T15:20:56.414Z,2.90
2022-10-01T15:26:58.623Z,3.73
2022-10-01T15:33:00.035Z,4.05
2022-10-01T15:39:03.485Z,4.53
2022-10-01T15:45:07.969Z,2.90
2022-10-01T15:51:16.012Z,3.58
2022-10-01T15:57:19.532Z,2.70
2022-10-01T16:03:23.931Z,2.88
2022-10-01T16:09:27.661Z,3.63
2022-10-01T16:15:30.259Z,4.70
2022-10-01T16:21:39.486Z,2.80
2022-10-01T16:27:45.252Z,3.40
2022-10-01T16:33:46.817Z,5.10
2022-10-01T16:39:48.224Z,4.00
2022-10-01T16:45:49.916Z,3.28
2022-10-01T16:51:52.776Z,2.83
2022-10-01T16:57:57.277Z,3.50
2022-10-01T17:03:58.832Z,3.35
2022-10-01T17:10:00.280Z,4.60
2022-10-01T17:16:02.005Z,3.22
2022-10-01T17:22:03.612Z,4.03
2022-10-01T17:28:07.998Z,3.70
2022-10-01T17:34:09.460Z,3.30
2022-10-01T17:40:11.148Z,3.50
2022-10-01T17:46:12.624Z,3.60
2022-10-01T17:52:14.473Z,3.45
2022-10-01T17:58:15.862Z,4.33
2022-10-01T18:04:17.888Z,4.20
2022-10-01T18:10:19.374Z,3.40
2022-10-01T18:16:21.197Z,3.50
2022-10-01T18:22:22.717Z,3.72
2022-10-01T18:28:24.789Z,3.57
2022-10-01T18:34:36.827Z,6.07
2022-10-01T18:40:42.171Z,4.90
2022-10-01T18:46:49.913Z,5.35
2022-10-01T18:52:56.856Z,5.60
2022-10-01T18:59:17.982Z,4.70
2022-10-01T20:35:04.667Z,6.03
2022-10-01T20:41:57.007Z,4.82
2022-10-01T20:48:05.518Z,5.03
2022-10-01T20:54:12.008Z,5.40
2022-10-01T21:00:18.699Z,7.10
2022-10-01T21:06:25.584Z,6.13
2022-10-01T21:12:29.981Z,6.70
2022-10-01T21:34:53.906Z,5.28
2022-10-01T21:41:14.283Z,5.73
2022-10-01T21:47:35.269Z,6.82
2022-10-01T21:53:46.711Z,5.60
2022-10-01T21:59:53.458Z,7.17
2022-10-01T22:05:58.018Z,4.65
2022-10-01T22:12:00.776Z,5.63
2022-10-01T22:18:05.492Z,4.50
2022-10-01T22:24:18.598Z,5.60
2022-10-01T22:30:21.753Z,4.03
2022-10-01T22:36:31.569Z,7.25
2022-10-01T22:42:36.119Z,4.80
2022-10-01T22:48:46.098Z,7.43
2022-10-01T22:55:07.800Z,6.13
2022-10-01T23:01:09.313Z,5.77
2022-10-01T23:07:17.736Z,4.82
2022-10-01T23:13:37.580Z,6.07
2022-10-01T23:19:44.388Z,4.88
2022-10-01T23:25:47.521Z,6.35
2022-10-01T23:32:25.053Z,4.93
2022-10-01T23:38:32.346Z,6.35
2022-10-01T23:44:40.580Z,7.33
2022-10-01T23:50:58.746Z,7.32
2022-10-01T23:57:18.955Z,5.85
